ADDS METAR Data INFO
IDs: Format: Raw Decoded Include TAF

Data at: 1319 UTC 19 Jul 2018

KAUM 191315Z AUTO 15006KT 7SM TSRA SCT008 BKN013 OVC027 19/17 A2988 RMK AO2 LTG DSNT S THRU NW P0001
KAUM 191255Z AUTO 15006KT 7SM RA SCT009 BKN016 OVC024 19/17 A2988 RMK AO2 LTG DSNT ALQDS P0001
KAUM 191235Z AUTO 16007KT 7SM VCTSRA OVC011 19/18 A2990 RMK AO2 LTG DSNT S THRU NW P0001
KAUM 191215Z AUTO 15005KT 10SM -VCTSRA BKN011 BKN025 OVC060 19/18 A2989 RMK AO2 LTG DSNT S THRU NW P0001
KAUM 191155Z AUTO 15005KT 5SM VCTSRA SCT009 SCT026 OVC050 19/17 A2989 RMK AO2 LTG DSNT S THRU NW
KAUM 191135Z AUTO 16006KT 10SM OVC050 19/17 A2990 RMK AO2 LTG DSNT SE THRU W
KAUM 191115Z AUTO 16005KT 10SM VCTS OVC050 19/18 A2990 RMK AO2 LTG DSNT SE THRU NW
KAUM 191055Z AUTO 14005KT 10SM VCTS BKN050 OVC055 19/18 A2990 RMK AO2 LTG DSNT SE THRU W
KAUM 191035Z AUTO 15006KT 10SM VCTS SCT048 OVC060 19/18 A2991 RMK AO2 LTG DSNT SE THRU W
KAUM 191015Z AUTO 14006KT 10SM SCT048 OVC060 19/18 A2991 RMK AO2 LTG DSNT SW
KAUM 190955Z AUTO 14006KT 10SM SCT055 OVC080 19/18 A2992 RMK AO2 LTG DSNT SW
KAUM 190935Z AUTO 14006KT 10SM SCT055 BKN080 19/18 A2992 RMK AO2 LTG DSNT S
KAUM 190915Z AUTO 14005KT 10SM SCT055 19/18 A2992 RMK AO2 LTG DSNT SW
KAUM 190855Z AUTO 14006KT 10SM CLR 19/18 A2992 RMK AO2 LTG DSNT S
KAUM 190835Z AUTO 14005KT 10SM SCT055 SCT080 19/18 A2993 RMK AO2 LTG DSNT S AND SW
KAUM 190815Z AUTO 14004KT 10SM BKN055 OVC065 20/18 A2994 RMK AO2
KAUM 190755Z AUTO 16004KT 10SM BKN055 20/18 A2995 RMK AO2 LTG DSNT SW
KAUM 190735Z AUTO 15003KT 10SM CLR 19/18 A2994 RMK AO2
KAUM 190715Z AUTO 14004KT 10SM CLR 19/18 A2994 RMK AO2 LTG DSNT SE
KAUM 190655Z AUTO 14004KT 10SM CLR 19/18 A2995 RMK AO2
KAUM 190635Z AUTO 13003KT 10SM CLR 19/17 A2996 RMK AO2
KAUM 190615Z AUTO 13003KT 10SM CLR 18/17 A2996 RMK AO2
KAUM 190555Z AUTO 13004KT 10SM CLR 18/17 A2997 RMK AO2
KAUM 190535Z AUTO 12004KT 10SM CLR 19/17 A2997 RMK AO2
KAUM 190515Z AUTO 00000KT 10SM CLR 19/17 A2998 RMK AO2 LTG DSNT SE
KAUM 190455Z AUTO 12004KT 10SM CLR 19/17 A2998 RMK AO2
KAUM 190435Z AUTO 12003KT 10SM CLR 19/17 A2999 RMK AO2
KAUM 190415Z AUTO 11004KT 10SM CLR 19/17 A2998 RMK AO2
KAUM 190355Z AUTO 11003KT 10SM CLR 19/17 A2999 RMK AO2
KAUM 190335Z AUTO 11004KT 10SM CLR 19/17 A2999 RMK AO2
KAUM 190315Z AUTO 11003KT 10SM CLR 19/17 A3000 RMK AO2
KAUM 190255Z AUTO 11004KT 10SM CLR 20/17 A3000 RMK AO2
KAUM 190235Z AUTO 00000KT 10SM CLR 21/17 A2999 RMK AO2
KAUM 190215Z AUTO 11004KT 10SM CLR 21/17 A2999 RMK AO2
KAUM 190155Z AUTO 11004KT 10SM CLR 22/17 A2999 RMK AO2
KAUM 190135Z AUTO 10004KT 10SM CLR 23/17 A2999 RMK AO2
KAUM 190115Z AUTO 10004KT 10SM CLR 24/17 A2999 RMK AO2
KAUM 190055Z AUTO 12003KT 10SM CLR 24/18 A2999 RMK AO2
KAUM 190035Z AUTO 11003KT 10SM CLR 24/17 A3000 RMK AO2
KAUM 190015Z AUTO 11003KT 10SM CLR 24/18 A3001 RMK AO2
KAUM 182355Z AUTO 11003KT 10SM CLR 24/17 A3000 RMK AO2
KAUM 182335Z AUTO 11003KT 10SM CLR 25/17 A3001 RMK AO2
KAUM 182315Z AUTO 11003KT 10SM CLR 26/17 A3001 RMK AO2
KAUM 182255Z AUTO 10004KT 10SM CLR 26/16 A3001 RMK AO2
KAUM 182235Z AUTO 11003KT 10SM CLR 26/17 A3002 RMK AO2
KAUM 182215Z AUTO 10003KT 10SM CLR 26/16 A3003 RMK AO2
KAUM 182155Z AUTO 11003KT 10SM CLR 26/16 A3003 RMK AO2
KAUM 182135Z AUTO 00000KT 10SM CLR 26/16 A3003 RMK AO2
KAUM 182115Z AUTO 00000KT 10SM CLR 26/16 A3004 RMK AO2
KAUM 182055Z AUTO 00000KT 10SM CLR 26/15 A3004 RMK AO2
KAUM 182035Z AUTO 11005KT 10SM CLR 26/16 A3005 RMK AO2
KAUM 182017Z AUTO 14004KT 10SM CLR 26/16 A3006 RMK AO2
KAUM 181955Z AUTO 13003KT 10SM CLR 26/16 A3006 RMK AO2
KAUM 181935Z AUTO 12005KT 10SM CLR 26/16 A3007 RMK AO2
KAUM 181915Z AUTO 00000KT 10SM CLR 26/16 A3008 RMK AO2
KAUM 181855Z AUTO 13005KT 10SM CLR 26/16 A3008 RMK AO2
KAUM 181835Z AUTO 17003KT 10SM CLR 25/16 A3008 RMK AO2
KAUM 181815Z AUTO 00000KT 10SM CLR 25/16 A3009 RMK AO2
KAUM 181755Z AUTO 18004KT 10SM CLR 25/16 A3009 RMK AO2
KAUM 181735Z AUTO 00000KT 10SM CLR 24/15 A3009 RMK AO2
KAUM 181715Z AUTO 14004KT 10SM CLR 25/16 A3009 RMK AO2
KAUM 181655Z AUTO 09003KT 10SM CLR 25/15 A3009 RMK AO2
KAUM 181635Z AUTO 00000KT 10SM CLR 24/15 A3010 RMK AO2
KAUM 181615Z AUTO 16003KT 10SM CLR 24/14 A3010 RMK AO2
KAUM 181555Z AUTO 11003KT 10SM CLR 24/15 A3011 RMK AO2
KAUM 181535Z AUTO 12004KT 10SM CLR 24/14 A3011 RMK AO2
KAUM 181515Z AUTO 11004KT 10SM CLR 23/14 A3011 RMK AO2
KAUM 181455Z AUTO 11003KT 10SM CLR 23/14 A3011 RMK AO2
KAUM 181435Z AUTO 12005KT 10SM CLR 23/15 A3011 RMK AO2
KAUM 181415Z AUTO 12003KT 10SM CLR 22/14 A3012 RMK AO2
KAUM 181355Z AUTO 12003KT 10SM CLR 22/15 A3012 RMK AO2
KAUM 181335Z AUTO 12004KT 10SM CLR 21/15 A3012 RMK AO2
KAUM 181315Z AUTO 12004KT 10SM CLR 20/15 A3013 RMK AO2
KAUM 181255Z AUTO 00000KT 10SM CLR 19/15 A3013 RMK AO2
KAUM 181235Z AUTO 00000KT 10SM CLR 18/14 A3013 RMK AO2
KAUM 181215Z AUTO 00000KT 10SM CLR 17/14 A3013 RMK AO2
KAUM 181155Z AUTO 00000KT 10SM CLR 16/13 A3013 RMK AO2
KAUM 181135Z AUTO 00000KT 10SM CLR 16/13 A3013 RMK AO2
KAUM 181115Z AUTO 00000KT 10SM CLR 14/13 A3012 RMK AO2
KAUM 181055Z AUTO 00000KT 10SM CLR 14/13 A3013 RMK AO2
KAUM 181035Z AUTO 00000KT 10SM CLR 15/13 A3013 RMK AO2
KAUM 181015Z AUTO 00000KT 10SM CLR 15/13 A3013 RMK AO2
KAUM 180955Z AUTO 00000KT 10SM CLR 15/13 A3013 RMK AO2
KAUM 180935Z AUTO 00000KT 10SM CLR 15/13 A3013 RMK AO2
KAUM 180915Z AUTO 00000KT 10SM CLR 15/13 A3013 RMK AO2
KAUM 180855Z AUTO 00000KT 10SM CLR 15/13 A3013 RMK AO2
KAUM 180835Z AUTO 00000KT 10SM CLR 15/13 A3013 RMK AO2
KAUM 180815Z AUTO 00000KT 10SM CLR 15/13 A3013 RMK AO2
KAUM 180755Z AUTO 00000KT 10SM CLR 15/13 A3013 RMK AO2
KAUM 180735Z AUTO 00000KT 10SM CLR 15/13 A3013 RMK AO2
KAUM 180715Z AUTO 00000KT 10SM CLR 16/13 A3012 RMK AO2
KAUM 180655Z AUTO 00000KT 10SM CLR 16/14 A3013 RMK AO2
KAUM 180635Z AUTO 00000KT 10SM CLR 16/14 A3012 RMK AO2
KAUM 180615Z AUTO 00000KT 10SM CLR 16/13 A3012 RMK AO2
KAUM 180555Z AUTO 00000KT 10SM CLR 17/14 A3013 RMK AO2
KAUM 180535Z AUTO 00000KT 10SM CLR 17/13 A3013 RMK AO2
KAUM 180515Z AUTO 00000KT 10SM CLR 17/14 A3012 RMK AO2
KAUM 180455Z AUTO 00000KT 10SM CLR 17/14 A3012 RMK AO2
KAUM 180435Z AUTO 00000KT 10SM CLR 17/14 A3011 RMK AO2
KAUM 180415Z AUTO 00000KT 10SM CLR 17/14 A3011 RMK AO2
KAUM 180355Z AUTO 06004KT 10SM CLR 18/14 A3011 RMK AO2
KAUM 180335Z AUTO 08003KT 10SM CLR 18/15 A3011 RMK AO2
KAUM 180315Z AUTO 06004KT 10SM CLR 18/15 A3011 RMK AO2
KAUM 180255Z AUTO 06003KT 10SM CLR 19/16 A3011 RMK AO2
KAUM 180235Z AUTO 00000KT 10SM CLR 19/16 A3011 RMK AO2
KAUM 180215Z AUTO 00000KT 10SM CLR 20/16 A3010 RMK AO2
KAUM 180155Z AUTO 00000KT 10SM CLR 22/16 A3010 RMK AO2
KAUM 180135Z AUTO 00000KT 10SM CLR 23/15 A3010 RMK AO2